createdAt,value
2022-10-28T00:02:21.127Z,102388.66
2022-10-28T00:07:34.334Z,102398.88
2022-10-28T00:12:39.603Z,102421.16
2022-10-28T00:17:37.760Z,102384.75
2022-10-28T00:22:38.738Z,102420.91
2022-10-28T00:27:38.926Z,102417.03
2022-10-28T00:32:39.235Z,102387.59
2022-10-28T00:37:45.189Z,102409.13
2022-10-28T00:42:46.945Z,102405.00
2022-10-28T00:47:52.553Z,102446.13
2022-10-28T00:53:08.497Z,102425.28
2022-10-28T00:58:09.874Z,102398.13
2022-10-28T01:03:12.209Z,102430.38
2022-10-28T01:08:14.570Z,102421.59
2022-10-28T01:13:13.314Z,102441.03
2022-10-28T01:18:24.354Z,102452.06
2022-10-28T01:24:01.658Z,102396.34
2022-10-28T01:29:37.731Z,102448.50
2022-10-28T01:34:50.302Z,102394.38
2022-10-28T01:39:55.578Z,102420.41
2022-10-28T01:45:06.680Z,102386.13
2022-10-28T01:50:32.452Z,102429.25
2022-10-28T01:55:42.339Z,102384.66
2022-10-28T02:00:44.954Z,102386.94
2022-10-28T02:05:56.359Z,102370.28
2022-10-28T02:11:16.168Z,102441.34
2022-10-28T02:16:34.591Z,102410.56
2022-10-28T02:21:50.763Z,102411.69
2022-10-28T02:27:25.098Z,102414.81
2022-10-28T02:32:26.318Z,102460.88
2022-10-28T02:37:32.444Z,102390.88
2022-10-28T02:42:39.875Z,102413.81
2022-10-28T02:47:45.520Z,102394.53
2022-10-28T02:53:03.712Z,102427.03
2022-10-28T02:58:07.742Z,102399.38
2022-10-28T03:03:07.134Z,102426.16
2022-10-28T03:08:17.447Z,102388.56
2022-10-28T03:13:17.264Z,102398.41
2022-10-28T03:18:15.773Z,102414.31
2022-10-28T03:23:29.215Z,102397.09
2022-10-28T03:28:35.118Z,102405.19
2022-10-28T03:33:37.398Z,102409.94
2022-10-28T03:38:36.783Z,102401.63
2022-10-28T03:43:38.169Z,102427.50
2022-10-28T03:48:38.139Z,102389.66
2022-10-28T03:53:37.258Z,102412.53
2022-10-28T03:58:43.148Z,102408.88
2022-10-28T04:03:47.286Z,102404.34
2022-10-28T04:08:54.987Z,102419.94
2022-10-28T04:13:54.772Z,102405.72
2022-10-28T04:18:56.801Z,102394.53
2022-10-28T04:23:56.138Z,102422.06
2022-10-28T04:28:56.873Z,102407.00
2022-10-28T04:33:55.995Z,102428.34
2022-10-28T04:38:57.571Z,102420.50
2022-10-28T04:43:59.221Z,102447.06
2022-10-28T04:49:04.177Z,102417.97
2022-10-28T04:54:02.580Z,102442.19
2022-10-28T04:59:02.685Z,102471.06
2022-10-28T05:04:07.256Z,102436.75
2022-10-28T05:09:12.359Z,102435.22
2022-10-28T05:14:13.891Z,102449.66
2022-10-28T05:19:14.725Z,102466.53
2022-10-28T05:24:17.963Z,102483.63
2022-10-28T05:29:21.311Z,102471.16
2022-10-28T05:34:18.716Z,102459.41
2022-10-28T05:39:16.314Z,102490.31
2022-10-28T05:44:15.747Z,102488.38
2022-10-28T05:49:24.156Z,102489.56
2022-10-28T05:54:26.561Z,102520.19
2022-10-28T05:59:28.352Z,102487.78
2022-10-28T06:04:28.817Z,102487.38
2022-10-28T06:14:56.077Z,102489.41
2022-10-28T06:19:58.028Z,102529.25
2022-10-28T06:24:57.871Z,102481.88
2022-10-28T06:29:56.214Z,102500.25
2022-10-28T06:34:56.504Z,102491.91
2022-10-28T06:40:11.270Z,102478.09
2022-10-28T06:45:18.700Z,102483.34
2022-10-28T06:50:21.415Z,102535.97
2022-10-28T06:55:28.524Z,102502.69
2022-10-28T07:00:34.195Z,102496.38
2022-10-28T07:05:42.991Z,102500.84
2022-10-28T07:10:45.459Z,102500.84
2022-10-28T07:15:45.728Z,102479.69
2022-10-28T07:21:00.158Z,102490.00
2022-10-28T07:26:02.708Z,102503.03
2022-10-28T07:31:02.310Z,102480.63
2022-10-28T07:36:03.971Z,102499.06
2022-10-28T07:41:13.727Z,102489.41
2022-10-28T07:46:14.279Z,102506.94
2022-10-28T07:51:15.290Z,102487.66
2022-10-28T07:56:14.914Z,102501.75
2022-10-28T08:01:18.283Z,102510.31
2022-10-28T08:06:23.524Z,102497.28
2022-10-28T08:11:27.013Z,102493.00
2022-10-28T08:16:30.312Z,102493.94
2022-10-28T08:21:39.412Z,102511.78
2022-10-28T08:26:37.500Z,102481.19
2022-10-28T08:31:41.113Z,102473.94
2022-10-28T08:36:40.526Z,102492.72
2022-10-28T08:41:48.891Z,102521.53
2022-10-28T08:47:14.554Z,102527.75
2022-10-28T08:52:51.881Z,102513.31
2022-10-28T08:57:53.945Z,102517.81
2022-10-28T09:03:16.970Z,102479.06
2022-10-28T09:08:24.944Z,102470.28
2022-10-28T09:13:25.182Z,102514.16
2022-10-28T09:18:59.318Z,102519.97
2022-10-28T09:23:59.099Z,102469.97
2022-10-28T09:29:20.317Z,102499.72
2022-10-28T09:34:38.033Z,102459.38
2022-10-28T09:39:57.970Z,102489.44
2022-10-28T09:45:02.429Z,102462.09
2022-10-28T09:50:06.572Z,102478.06
2022-10-28T09:55:14.864Z,102428.63
2022-10-28T10:00:14.477Z,102417.38
2022-10-28T10:05:16.941Z,102432.97
2022-10-28T10:10:24.005Z,102420.31
2022-10-28T10:15:36.320Z,102447.25
2022-10-28T10:20:59.956Z,102458.41
2022-10-28T10:26:19.701Z,102455.41
2022-10-28T10:31:33.559Z,102425.41
2022-10-28T10:36:37.772Z,102404.38
2022-10-28T10:41:40.421Z,102434.53
2022-10-28T10:46:40.759Z,102391.34
2022-10-28T10:51:42.011Z,102428.94
2022-10-28T10:56:45.883Z,102428.19
2022-10-28T11:01:45.602Z,102386.31
2022-10-28T11:06:44.813Z,102388.84
2022-10-28T11:11:43.493Z,102376.03
2022-10-28T11:16:54.442Z,102387.09
2022-10-28T11:22:05.335Z,102400.59
2022-10-28T11:27:12.157Z,102400.13
2022-10-28T11:32:26.923Z,102389.41
2022-10-28T11:37:46.209Z,102391.84
2022-10-28T11:42:54.366Z,102383.41
2022-10-28T11:48:15.868Z,102330.16
2022-10-28T11:53:16.674Z,102375.22
2022-10-28T11:58:29.595Z,102368.09
2022-10-28T12:03:52.922Z,102368.84
2022-10-28T12:09:09.544Z,102361.81
2022-10-28T12:14:27.675Z,102328.03
2022-10-28T12:19:33.140Z,102314.25
2022-10-28T12:24:37.350Z,102303.28
2022-10-28T12:29:40.077Z,102316.22
2022-10-28T12:34:54.476Z,102343.97
2022-10-28T12:40:32.374Z,102330.28
2022-10-28T12:45:35.835Z,102309.19
2022-10-28T12:50:46.376Z,102328.38
2022-10-28T12:55:50.357Z,102293.03
2022-10-28T13:01:36.813Z,102278.06
2022-10-28T13:06:56.516Z,102324.56
2022-10-28T13:12:06.965Z,102317.88
2022-10-28T13:17:31.269Z,102318.53
2022-10-28T13:22:47.127Z,102319.72
2022-10-28T13:28:03.668Z,102288.53
2022-10-28T13:33:14.678Z,102298.59
2022-10-28T13:38:26.457Z,102299.69
2022-10-28T13:44:08.259Z,102285.84
2022-10-28T13:49:27.016Z,102315.97
2022-10-28T13:54:36.186Z,102308.19
2022-10-28T13:59:52.742Z,102277.69
2022-10-28T14:05:04.206Z,102255.31
2022-10-28T14:10:22.035Z,102296.09
2022-10-28T14:15:26.716Z,102275.13
2022-10-28T14:20:30.523Z,102276.88
2022-10-28T14:25:48.293Z,102294.66
2022-10-28T14:31:09.296Z,102269.72
2022-10-28T14:36:32.491Z,102271.72
2022-10-28T14:41:47.761Z,102298.41
2022-10-28T14:46:52.259Z,102293.69
2022-10-28T14:51:51.215Z,102292.31
2022-10-28T14:56:54.381Z,102265.41
2022-10-28T15:02:18.932Z,102243.22
2022-10-28T15:07:25.062Z,102271.69
2022-10-28T15:12:34.563Z,102222.22
2022-10-28T15:17:44.474Z,102237.66
2022-10-28T15:29:12.980Z,102253.91
2022-10-28T15:34:23.685Z,102263.56
2022-10-28T15:39:22.912Z,102295.25
2022-10-28T15:44:40.307Z,102300.09
2022-10-28T15:49:46.834Z,102259.50
2022-10-28T15:54:55.944Z,102279.94
2022-10-28T16:00:38.808Z,102297.25
2022-10-28T16:05:40.384Z,102299.44
2022-10-28T16:10:46.192Z,102249.25
2022-10-28T16:15:54.380Z,102268.03
2022-10-28T16:21:08.807Z,102278.13
2022-10-28T16:26:24.594Z,102273.19
2022-10-28T16:31:30.510Z,102298.41
2022-10-28T16:36:32.587Z,102303.16
2022-10-28T16:41:34.603Z,102269.59
2022-10-28T16:52:32.480Z,102292.94
2022-10-28T16:57:35.579Z,102276.81
2022-10-28T17:02:38.726Z,102268.25
2022-10-28T17:07:41.064Z,102288.66
2022-10-28T17:12:52.663Z,102257.97
2022-10-28T17:17:54.606Z,102267.81
2022-10-28T17:23:05.075Z,102286.94
2022-10-28T17:28:07.293Z,102293.78
2022-10-28T17:33:06.697Z,102279.78
2022-10-28T17:38:10.544Z,102267.41
2022-10-28T17:43:15.574Z,102245.59
2022-10-28T17:48:22.830Z,102264.69
2022-10-28T17:53:27.004Z,102293.38
2022-10-28T17:58:29.760Z,102267.13
2022-10-28T18:03:35.614Z,102274.31
2022-10-28T18:08:41.985Z,102244.28
2022-10-28T18:13:46.351Z,102238.47
2022-10-28T18:18:55.638Z,102245.34
2022-10-28T18:24:04.157Z,102244.63
2022-10-28T18:29:04.195Z,102283.88
2022-10-28T18:34:03.450Z,102264.81
2022-10-28T18:39:07.521Z,102285.72
2022-10-28T18:44:14.385Z,102252.34
2022-10-28T18:49:23.447Z,102253.91
2022-10-28T18:54:29.776Z,102242.34
2022-10-28T18:59:31.627Z,102248.75
2022-10-28T19:04:31.624Z,102248.78
2022-10-28T19:09:37.799Z,102291.56
2022-10-28T19:14:39.184Z,102249.66
2022-10-28T19:19:39.692Z,102267.56
2022-10-28T19:24:37.851Z,102271.28
2022-10-28T19:29:38.137Z,102260.75
2022-10-28T19:34:37.433Z,102247.00
2022-10-28T19:39:38.416Z,102292.22
2022-10-28T19:44:42.707Z,102256.03
2022-10-28T19:49:44.500Z,102286.41
2022-10-28T19:54:50.410Z,102269.59
2022-10-28T20:00:11.481Z,102270.03
2022-10-28T20:05:13.727Z,102316.16
2022-10-28T20:10:20.767Z,102251.31
2022-10-28T20:15:23.628Z,102296.06
2022-10-28T20:20:25.612Z,102292.38
2022-10-28T20:25:29.737Z,102291.44
2022-10-28T20:30:29.193Z,102277.91
2022-10-28T20:35:30.137Z,102292.41
2022-10-28T20:40:29.007Z,102298.59
2022-10-28T20:45:31.600Z,102261.50
2022-10-28T20:50:36.673Z,102264.16
2022-10-28T20:55:53.226Z,102277.13
2022-10-28T21:00:54.328Z,102309.81
2022-10-28T21:05:54.522Z,102271.03
2022-10-28T21:10:55.676Z,102258.38
2022-10-28T21:15:57.945Z,102293.38
2022-10-28T21:21:05.349Z,102271.59
2022-10-28T21:26:06.961Z,102305.50
2022-10-28T21:31:13.947Z,102263.56
2022-10-28T21:36:18.465Z,102300.50
2022-10-28T21:41:22.594Z,102261.75
2022-10-28T21:46:24.475Z,102288.84
2022-10-28T21:51:23.401Z,102246.44
2022-10-28T21:56:24.588Z,102290.03
2022-10-28T22:01:24.929Z,102259.78
2022-10-28T22:06:25.626Z,102268.19
2022-10-28T22:11:28.070Z,102273.16
2022-10-28T22:16:29.632Z,102246.22
2022-10-28T22:21:36.058Z,102261.72
2022-10-28T22:26:43.934Z,102260.66
2022-10-28T22:31:43.637Z,102237.78
2022-10-28T22:36:45.098Z,102241.53
2022-10-28T22:41:45.849Z,102243.22
2022-10-28T22:46:45.001Z,102248.00
2022-10-28T22:51:44.210Z,102241.75
2022-10-28T22:56:45.629Z,102219.59
2022-10-28T23:01:50.874Z,102230.16
2022-10-28T23:06:53.024Z,102252.75
2022-10-28T23:11:53.289Z,102220.66
2022-10-28T23:16:58.154Z,102243.56
2022-10-28T23:21:57.926Z,102223.91
2022-10-28T23:31:58.103Z,102233.19
2022-10-28T23:36:57.105Z,102214.00
2022-10-28T23:41:56.808Z,102202.72
2022-10-28T23:47:01.187Z,102218.22
2022-10-28T23:51:58.666Z,102199.91
2022-10-28T23:57:00.822Z,102197.84
